Terminal Aerodrome Forecast
Issued by NWS Lake Charles, LA

Current Version | Previous Version | Text Only | Print | Product List | Glossary On
Versions: 1 2 3 4 5 6 7 8 9 10 11 12 13 14
000
FTUS44 KLCH 051120
TAFLFT
TAF
KLFT 051120Z 0512/0612 VRB05KT P6SM SKC
     FM051700 23006KT P6SM SCT040
     FM052000 21010KT P6SM VCSH SCT050 BKN200
     FM060200 20005KT P6SM FEW050 SCT250=

USA.gov is the U.S. government's official web portal to all federal, state and local government web resources and services.